West Palm Beach, FL

11:25 PM EST on December 09, 2016 (GMT -0500)
Downtown | | Change Station

Elev 0 ft 26.71 °N, 80.05 °W | Updated 8 minutes ago

Heavy Rain
Heavy Rain Mist
72.9 °F
Feels Like 74 °F
N
0.6
Wind Variable Wind from West
Gusts 1.2 mph

Today
High -- | Low -- °F
--% Chance of Precip.
Yesterday
High -- | Low -- °F
Precip. -- in
Pressure 30.24 in
Visibility 2.0 miles
Clouds Mostly Cloudy 500 ft
Mostly Cloudy 1400 ft
Overcast 3000 ft
Heat Index 74 °F
Dew Point 65 °F
Humidity 75%
Rainfall Not available.
Snow Depth Not available.
6:57 AM 5:27 PM
Waxing Gibbous, 80% visible
SPECI KPBI 100357Z 32007KT 2SM +RA BR BKN005 BKN014 OVC030 18/18 A3024 RMK AO2 P0007 T01830178 $
Pressure 30.24 in
Visibility 2.0 miles
Clouds Mostly Cloudy 500 ft
Mostly Cloudy 1400 ft
Overcast 3000 ft
Heat Index 74 °F
Dew Point 65 °F
Humidity 75%
Rainfall Not available.
Snow Depth Not available.
6:57 AM 5:27 PM
Waxing Gibbous, 80% visible
SPECI KPBI 100357Z 32007KT 2SM +RA BR BKN005 BKN014 OVC030 18/18 A3024 RMK AO2 P0007 T01830178 $

10-Day Weather Forecast

Almanac

Astronomy

Dec. 09, 2016 Rise Set
Actual Time
Civil Twilight
Nautical Twilight
Astronomical Twilight
Moon
Length of Visible Light
Length of Day
Tomorrow will be .
, % of the Moon is Illuminated

Today's Extremes

State Highs State Lows

Community

WunderPhotos

Upload Photos

1,956,529 photos uploaded!

WunderBlog® & News

Nearby

Air Quality

  Air Quality AQ Index Pollutant
Not available.

Snow Depth

Station Depth Elevation

Earthquake Activity

City Distance Mag. Time & Date
Minimum magnitude displayed is 2.5.

Coastal Water Temperatures

Place Temperature

Stations

Nearby Weather Stations

Station Location Temp. Windchill Dew Point Humidity Wind Precip. Elev Updated Type
                   

Watches & Warnings

There are currently no watches in effect.